Time;durP1;ratioP1;P1;durP2;ratioP2;P2;SDS_P1;SDS_P2;PMS_P1;PMS_P2;Temp;Humidity;BMP_temperature;BMP_pressure;BME280_temperature;BME280_humidity;BME280_pressure;Samples;Min_cycle;Max_cycle;Signal;HPM_P1;HPM_P2
2023/02/19 00:00:27;;;;;;;8.82;6.50;;;;;;;3.34;100.00;95034.06;5075888;28;20032;-74
2023/02/19 00:02:54;;;;;;;13.88;6.80;;;;;;;3.68;100.00;95012.47;5076753;28;20020;-74
2023/02/19 00:05:20;;;;;;;7.93;6.20;;;;;;;4.18;100.00;95020.19;5076343;28;20091;-73
2023/02/19 00:07:45;;;;;;;8.35;6.07;;;;;;;4.37;100.00;95019.41;5074275;28;20569;-74
2023/02/19 00:10:11;;;;;;;10.05;7.07;;;;;;;4.37;100.00;95019.41;5077913;28;20079;-74
2023/02/19 00:12:36;;;;;;;11.43;6.63;;;;;;;4.74;100.00;95008.44;5074567;28;20641;-74
2023/02/19 00:15:03;;;;;;;13.50;6.55;;;;;;;4.91;100.00;95012.09;5077204;28;20134;-74
2023/02/19 00:17:30;;;;;;;7.15;5.70;;;;;;;5.06;100.00;95015.03;5075424;28;20032;-74
2023/02/19 00:19:55;;;;;;;7.22;5.70;;;;;;;5.22;98.74;95007.59;5075198;28;20031;-74
2023/02/19 00:22:20;;;;;;;8.48;6.53;;;;;;;5.02;98.99;95013.69;5075981;28;20050;-74
2023/02/19 00:24:47;;;;;;;12.70;7.00;;;;;;;4.52;100.00;95013.81;5075645;28;20374;-74
2023/02/19 00:27:13;;;;;;;8.55;6.68;;;;;;;4.30;100.00;95024.28;5076783;28;20038;-74
2023/02/19 00:29:38;;;;;;;8.23;6.22;;;;;;;3.65;100.00;95017.84;5073977;28;20464;-74
2023/02/19 00:32:04;;;;;;;7.07;6.15;;;;;;;3.43;100.00;95025.66;5059500;28;20032;-74
2023/02/19 00:34:29;;;;;;;7.35;6.65;;;;;;;3.19;100.00;95025.09;5069497;28;20037;-74
2023/02/19 00:36:55;;;;;;;10.75;7.15;;;;;;;3.06;100.00;95030.38;5077745;28;20123;-74
2023/02/19 00:39:20;;;;;;;9.35;6.80;;;;;;;3.13;100.00;95015.34;5055090;28;20042;-74
2023/02/19 00:41:46;;;;;;;10.27;6.75;;;;;;;3.04;100.00;95011.81;5069786;28;20035;-74
2023/02/19 00:44:12;;;;;;;10.80;6.88;;;;;;;2.92;100.00;95006.88;5076650;28;20111;-74
2023/02/19 00:46:39;;;;;;;9.52;7.15;;;;;;;3.08;100.00;95012.38;5075184;28;20028;-74
2023/02/19 00:49:06;;;;;;;10.60;7.75;;;;;;;3.31;100.00;95010.50;5077389;28;20055;-74
2023/02/19 00:51:34;;;;;;;11.27;7.10;;;;;;;3.31;100.00;95013.84;5073585;28;20032;-74
2023/02/19 00:53:59;;;;;;;12.68;8.05;;;;;;;3.24;100.00;94999.16;5075626;28;20079;-74
2023/02/19 00:56:25;;;;;;;13.90;8.43;;;;;;;3.46;100.00;94999.00;5074960;28;20466;-74
2023/02/19 00:58:51;;;;;;;11.35;7.10;;;;;;;3.44;100.00;94982.94;5074705;28;20800;-74
2023/02/19 01:01:17;;;;;;;12.73;7.97;;;;;;;3.42;100.00;94989.94;5075714;28;20044;-75
2023/02/19 01:03:43;;;;;;;9.85;6.95;;;;;;;3.39;100.00;94977.41;5043314;28;20115;-74
2023/02/19 01:06:10;;;;;;;12.55;9.07;;;;;;;3.47;100.00;94982.69;5063166;28;20614;-74
2023/02/19 01:08:36;;;;;;;11.20;8.20;;;;;;;3.57;100.00;94984.38;5056781;28;20429;-74
2023/02/19 01:11:02;;;;;;;11.65;6.93;;;;;;;3.79;100.00;94982.59;5073043;28;20040;-73
2023/02/19 01:13:28;;;;;;;10.80;7.78;;;;;;;3.86;100.00;94989.59;5064957;28;20079;-74
2023/02/19 01:16:02;;;;;;;11.32;7.60;;;;;;;4.13;100.00;94966.78;5043882;28;20494;-74
2023/02/19 01:18:27;;;;;;;9.18;6.30;;;;;;;4.24;100.00;94970.97;5075408;28;20196;-74
2023/02/19 01:20:53;;;;;;;9.85;6.50;;;;;;;4.14;100.00;94967.59;5075261;28;20077;-74
2023/02/19 01:23:18;;;;;;;7.72;6.20;;;;;;;4.53;100.00;94961.56;5077265;28;20024;-74
2023/02/19 01:25:44;;;;;;;7.72;5.90;;;;;;;4.32;100.00;94960.06;5075309;28;20016;-74
2023/02/19 01:28:09;;;;;;;7.30;5.53;;;;;;;4.21;100.00;94960.97;5077099;28;20107;-74
2023/02/19 01:30:36;;;;;;;11.00;5.25;;;;;;;4.30;100.00;94951.72;5075698;28;20522;-74
2023/02/19 01:33:05;;;;;;;7.13;5.57;;;;;;;4.25;100.00;94954.66;5076453;28;20525;-74
2023/02/19 01:35:31;;;;;;;14.77;6.65;;;;;;;4.10;100.00;94958.53;5088950;28;20074;-74
2023/02/19 01:37:56;;;;;;;10.48;6.95;;;;;;;4.13;100.00;94961.66;5074331;28;20106;-74
2023/02/19 01:40:22;;;;;;;9.45;6.15;;;;;;;4.06;100.00;94972.56;5074990;28;20070;-74
2023/02/19 01:42:47;;;;;;;13.80;6.60;;;;;;;4.07;100.00;94971.63;5064239;28;20024;-74
2023/02/19 01:45:27;;;;;;;9.40;7.53;;;;;;;4.32;100.00;94981.38;5070997;28;20370;-74
2023/02/19 01:47:56;;;;;;;10.23;6.40;;;;;;;3.98;100.00;94993.69;5053944;28;20513;-74
2023/02/19 01:50:23;;;;;;;8.63;7.10;;;;;;;3.32;100.00;95002.69;5056362;28;20033;-74
2023/02/19 01:52:48;;;;;;;10.00;7.60;;;;;;;3.04;100.00;95023.78;5074670;28;20100;-74
2023/02/19 01:55:14;;;;;;;10.18;8.70;;;;;;;2.74;100.00;95034.69;5057032;28;20035;-74
2023/02/19 01:57:44;;;;;;;10.43;8.13;;;;;;;2.21;100.00;95028.69;5075338;28;20031;-74
2023/02/19 02:00:12;;;;;;;13.00;8.20;;;;;;;2.21;100.00;95031.25;5073251;28;20455;-74
2023/02/19 02:02:38;;;;;;;10.82;8.10;;;;;;;2.19;100.00;95039.94;5040712;28;20098;-74
2023/02/19 02:05:08;;;;;;;9.93;7.40;;;;;;;2.59;100.00;95041.03;5077259;28;20122;-74
2023/02/19 02:10:20;;;;;;;13.27;7.35;;;;;;;3.03;100.00;95025.53;5080255;28;20181;-74
2023/02/19 02:12:52;;;;;;;15.38;8.73;;;;;;;2.78;100.00;95015.63;5060235;28;20030;-74
2023/02/19 02:15:17;;;;;;;12.48;8.38;;;;;;;2.75;100.00;95021.00;5078722;28;20039;-74
2023/02/19 02:18:13;;;;;;;9.25;7.13;;;;;;;2.90;100.00;95022.31;5059767;28;20509;-74
2023/02/19 02:21:07;;;;;;;12.48;8.23;;;;;;;2.77;100.00;95013.19;5077888;28;20024;-75
2023/02/19 02:23:56;;;;;;;20.67;10.55;;;;;;;2.78;100.00;95012.25;5069697;28;20031;-74
2023/02/19 02:26:42;;;;;;;22.23;13.93;;;;;;;2.88;100.00;95013.16;5076509;28;20028;-74
2023/02/19 02:29:26;;;;;;;25.15;15.43;;;;;;;2.69;100.00;95010.44;5079831;28;20071;-74
2023/02/19 02:31:56;;;;;;;22.08;13.65;;;;;;;2.65;100.00;95013.25;5066900;28;20539;-74
2023/02/19 02:34:25;;;;;;;21.15;13.40;;;;;;;2.70;100.00;95012.88;5070089;28;20497;-74
2023/02/19 02:36:53;;;;;;;20.55;13.57;;;;;;;2.52;100.00;95019.44;5063786;28;20555;-74
2023/02/19 02:39:21;;;;;;;18.48;11.27;;;;;;;2.73;100.00;94999.06;5077044;28;20398;-75
2023/02/19 02:45:33;;;;;;;14.80;10.18;;;;;;;3.09;100.00;95003.75;5069943;28;20031;-74
2023/02/19 02:47:40;;;;;;;15.13;9.60;;;;;;;3.05;100.00;95012.63;5076584;28;20424;-74
2023/02/19 02:50:08;;;;;;;16.52;10.50;;;;;;;2.94;100.00;95022.88;5078179;28;20462;-74
2023/02/19 02:55:21;;;;;;;18.10;12.95;;;;;;;2.85;100.00;95023.63;5073777;28;20747;-74
2023/02/19 02:57:46;;;;;;;23.60;14.07;;;;;;;2.98;100.00;95021.72;5057282;28;20026;-74
2023/02/19 03:00:13;;;;;;;33.08;15.25;;;;;;;3.23;100.00;95017.97;5069457;28;20505;-74
2023/02/19 03:02:39;;;;;;;22.30;11.32;;;;;;;3.21;100.00;95012.19;5077682;28;20353;-74
2023/02/19 03:08:02;;;;;;;25.38;12.18;;;;;;;3.77;100.00;95010.06;5077645;28;20256;-74
2023/02/19 03:10:33;;;;;;;17.75;10.30;;;;;;;4.33;100.00;95007.84;5078345;28;20721;-74
2023/02/19 03:19:17;;;;;;;13.50;7.95;;;;;;;5.02;100.00;95000.84;5077829;28;20507;-74
2023/02/19 03:21:35;;;;;;;11.40;8.02;;;;;;;5.26;100.00;95016.66;5077433;28;20043;-74
2023/02/19 03:26:52;;;;;;;10.35;8.20;;;;;;;4.34;100.00;95035.06;5075645;28;20084;-75
2023/02/19 03:29:22;;;;;;;11.90;9.30;;;;;;;4.14;100.00;95035.00;5060776;28;20058;-75
2023/02/19 03:32:17;;;;;;;13.10;8.95;;;;;;;4.51;100.00;95037.81;5063152;28;20476;-75
2023/02/19 03:34:50;;;;;;;15.00;9.00;;;;;;;4.98;100.00;95023.41;5088238;28;20268;-74
2023/02/19 03:37:24;;;;;;;13.05;8.80;;;;;;;4.94;100.00;95039.22;5063159;28;20093;-75
2023/02/19 03:39:50;;;;;;;12.70;9.18;;;;;;;5.03;100.00;95036.66;5075233;28;20031;-75
2023/02/19 03:42:15;;;;;;;14.48;9.02;;;;;;;4.88;100.00;95050.03;5076662;28;20088;-74
2023/02/19 03:44:46;;;;;;;13.55;9.43;;;;;;;4.69;100.00;95048.22;5076936;28;20498;-74
2023/02/19 03:47:29;;;;;;;15.05;9.07;;;;;;;4.76;100.00;95057.00;5075988;28;20382;-75
2023/02/19 03:50:09;;;;;;;12.27;8.90;;;;;;;4.01;100.00;95059.25;5078222;28;20024;-75
2023/02/19 03:52:53;;;;;;;17.17;10.05;;;;;;;3.41;100.00;95065.91;5068576;28;20111;-75
2023/02/19 03:55:24;;;;;;;12.65;10.30;;;;;;;3.29;100.00;95064.34;5072776;28;20467;-74
2023/02/19 03:57:53;;;;;;;17.13;10.02;;;;;;;3.35;100.00;95056.19;5077426;28;20032;-74
2023/02/19 04:00:25;;;;;;;16.85;10.55;;;;;;;3.45;100.00;95074.16;5075695;28;20032;-74
2023/02/19 04:03:02;;;;;;;13.80;10.10;;;;;;;3.24;100.00;95073.34;5077878;28;20039;-75
2023/02/19 04:05:32;;;;;;;14.00;10.52;;;;;;;3.08;100.00;95071.19;5074324;28;20040;-74
2023/02/19 04:08:13;;;;;;;15.40;10.25;;;;;;;3.03;100.00;95086.09;5076871;28;20062;-74
2023/02/19 04:10:39;;;;;;;16.70;10.02;;;;;;;2.83;100.00;95084.28;5074969;28;20038;-75
2023/02/19 04:13:12;;;;;;;18.33;12.27;;;;;;;2.65;100.00;95087.38;5075809;28;20036;-75
2023/02/19 04:15:40;;;;;;;89.82;48.75;;;;;;;2.66;100.00;95099.19;5055824;28;20032;-74
2023/02/19 04:18:07;;;;;;;22.75;15.40;;;;;;;2.93;100.00;95093.69;5057858;28;20507;-75
2023/02/19 04:20:38;;;;;;;16.25;11.57;;;;;;;3.31;100.00;95090.63;5070424;28;20081;-74
2023/02/19 04:23:04;;;;;;;26.75;15.40;;;;;;;3.08;100.00;95078.88;5074287;28;20228;-75
2023/02/19 04:25:29;;;;;;;22.88;15.27;;;;;;;2.93;100.00;95080.88;5055083;28;20040;-74
2023/02/19 04:27:55;;;;;;;20.45;14.05;;;;;;;2.80;100.00;95081.97;5072130;28;20485;-74
2023/02/19 04:30:21;;;;;;;21.70;13.65;;;;;;;2.50;100.00;95092.88;5075475;28;20020;-74
2023/02/19 04:32:46;;;;;;;17.30;11.32;;;;;;;2.66;100.00;95093.31;5075389;28;20515;-75
2023/02/19 04:35:12;;;;;;;19.38;13.35;;;;;;;3.02;100.00;95094.69;5088416;28;20501;-74
2023/02/19 04:37:37;;;;;;;18.55;12.63;;;;;;;2.64;100.00;95093.41;5059514;28;20039;-75
2023/02/19 04:40:03;;;;;;;14.18;11.30;;;;;;;2.44;100.00;95086.47;5057157;28;20066;-74
2023/02/19 04:42:29;;;;;;;16.75;12.10;;;;;;;2.64;100.00;95082.38;5056449;28;20025;-74
2023/02/19 04:44:54;;;;;;;14.57;9.77;;;;;;;3.51;100.00;95087.25;5068619;28;20032;-74
2023/02/19 04:47:20;;;;;;;17.42;10.07;;;;;;;3.13;100.00;95087.81;5075734;28;20107;-74
2023/02/19 04:49:45;;;;;;;16.60;10.18;;;;;;;2.99;100.00;95093.19;5074792;28;20043;-74
2023/02/19 04:52:11;;;;;;;13.45;9.30;;;;;;;3.53;100.00;95094.84;5044140;28;20548;-75
2023/02/19 04:54:36;;;;;;;12.38;10.68;;;;;;;2.90;100.00;95090.53;5077228;28;20020;-74
2023/02/19 04:57:01;;;;;;;14.63;9.75;;;;;;;3.09;100.00;95090.72;5074347;28;20027;-74
2023/02/19 04:59:27;;;;;;;14.77;10.65;;;;;;;2.84;100.00;95093.59;5075626;28;20063;-75
2023/02/19 05:01:53;;;;;;;16.52;9.98;;;;;;;2.58;100.00;95108.41;5073875;28;20032;-74
2023/02/19 05:04:18;;;;;;;10.05;7.78;;;;;;;3.70;100.00;95104.50;5058983;28;20418;-74
2023/02/19 05:06:43;;;;;;;15.05;10.45;;;;;;;2.90;100.00;95104.16;5074126;28;20024;-74
2023/02/19 05:09:09;;;;;;;18.80;12.07;;;;;;;2.75;100.00;95102.81;5058006;28;20072;-74
2023/02/19 05:11:34;;;;;;;23.67;17.05;;;;;;;2.52;100.00;95116.53;5074674;28;20424;-75
2023/02/19 05:14:00;;;;;;;26.08;17.00;;;;;;;2.45;100.00;95116.19;5074755;28;20028;-75
2023/02/19 05:16:25;;;;;;;31.15;17.17;;;;;;;2.60;100.00;95125.25;5075195;28;20020;-74
2023/02/19 05:18:51;;;;;;;28.50;16.63;;;;;;;2.79;100.00;95123.84;5074179;28;20156;-74
2023/02/19 05:21:17;;;;;;;19.55;10.80;;;;;;;2.41;100.00;95131.91;5077282;28;20057;-74
2023/02/19 05:23:43;;;;;;;17.00;10.93;;;;;;;2.08;100.00;95125.03;5073688;28;20034;-74
2023/02/19 05:26:18;;;;;;;15.27;10.07;;;;;;;1.99;100.00;95126.53;5075413;28;20445;-74
2023/02/19 05:28:45;;;;;;;14.13;10.32;;;;;;;2.53;100.00;95136.06;5054300;28;20040;-75
2023/02/19 05:31:11;;;;;;;18.02;10.10;;;;;;;2.64;100.00;95143.72;5071101;28;20606;-74
2023/02/19 05:33:37;;;;;;;15.77;9.98;;;;;;;3.07;100.00;95143.75;5079644;28;20031;-74
2023/02/19 05:36:21;;;;;;;13.52;9.75;;;;;;;3.03;100.00;95145.72;5083978;28;20048;-75
2023/02/19 05:38:50;;;;;;;13.18;10.20;;;;;;;3.11;100.00;95148.47;5079452;28;20166;-74
2023/02/19 05:41:18;;;;;;;14.10;10.43;;;;;;;3.79;100.00;95141.38;5061091;28;20416;-74
2023/02/19 05:43:45;;;;;;;26.02;20.92;;;;;;;3.37;100.00;95146.41;5078770;28;20043;-75
2023/02/19 05:46:13;;;;;;;14.50;12.73;;;;;;;3.30;100.00;95145.31;5051885;28;20029;-74
2023/02/19 05:48:38;;;;;;;12.27;9.77;;;;;;;3.87;100.00;95150.03;5061364;28;20051;-75
2023/02/19 05:51:06;;;;;;;14.25;10.63;;;;;;;4.44;100.00;95153.84;5091445;28;20501;-74
2023/02/19 05:53:32;;;;;;;11.82;9.23;;;;;;;4.89;100.00;95151.69;5077169;28;20047;-74
2023/02/19 05:55:58;;;;;;;15.63;9.35;;;;;;;5.78;100.00;95151.47;5072986;28;20496;-75
2023/02/19 05:58:23;;;;;;;12.35;9.43;;;;;;;5.71;98.76;95145.28;5056820;28;20025;-75
2023/02/19 06:00:49;;;;;;;17.80;15.52;;;;;;;6.59;94.64;95158.66;5072594;28;20111;-74
2023/02/19 06:03:14;;;;;;;23.25;15.75;;;;;;;6.57;91.95;95146.88;5070026;28;20028;-74
2023/02/19 06:05:40;;;;;;;17.08;13.80;;;;;;;6.41;92.74;95152.63;5077372;28;20396;-75
2023/02/19 06:08:05;;;;;;;150.77;124.55;;;;;;;7.03;90.57;95139.06;5080195;28;20059;-75
2023/02/19 06:10:31;;;;;;;200.77;178.80;;;;;;;7.64;87.82;95138.38;5078464;28;20038;-75
2023/02/19 06:12:56;;;;;;;92.70;74.45;;;;;;;8.46;81.16;95155.13;5078470;28;20021;-75
2023/02/19 06:15:21;;;;;;;79.88;46.22;;;;;;;9.35;76.50;95149.47;5077088;28;20020;-76
2023/02/19 06:17:47;;;;;;;90.07;49.13;;;;;;;10.58;66.68;95152.75;5079564;28;20295;-75
2023/02/19 06:20:13;;;;;;;113.55;53.03;;;;;;;9.61;70.36;95155.34;5077013;28;20080;-75
2023/02/19 06:22:38;;;;;;;89.85;42.88;;;;;;;9.66;71.44;95160.06;5079658;28;20032;-75
2023/02/19 06:25:06;;;;;;;59.72;32.75;;;;;;;9.89;68.33;95159.25;5089376;28;20493;-77
2023/02/19 06:27:32;;;;;;;35.20;18.80;;;;;;;9.62;71.69;95172.50;5077032;28;20032;-75
2023/02/19 06:29:57;;;;;;;31.15;17.73;;;;;;;9.96;69.57;95173.16;5077814;28;20524;-75
2023/02/19 06:32:23;;;;;;;14.07;9.60;;;;;;;10.59;65.75;95172.50;5078622;28;20668;-75
2023/02/19 06:34:48;;;;;;;11.30;9.40;;;;;;;10.46;65.50;95177.38;5094111;28;20031;-75
2023/02/19 06:37:14;;;;;;;11.32;9.93;;;;;;;11.06;63.08;95175.09;5076606;28;20047;-76
2023/02/19 06:39:39;;;;;;;12.65;9.88;;;;;;;11.22;62.61;95176.81;5077818;28;20032;-76
2023/02/19 06:42:04;;;;;;;13.05;9.40;;;;;;;11.52;60.50;95178.63;5059307;28;20134;-76
2023/02/19 06:44:30;;;;;;;20.90;10.95;;;;;;;10.74;64.47;95188.97;5060185;28;20032;-76
2023/02/19 06:46:56;;;;;;;11.48;9.23;;;;;;;11.32;61.32;95193.78;5076557;28;20036;-76
2023/02/19 06:49:21;;;;;;;10.60;8.32;;;;;;;11.66;60.59;95196.03;5074913;28;20055;-76
2023/02/19 06:51:47;;;;;;;9.63;8.73;;;;;;;11.34;60.26;95196.19;5077266;28;20039;-76
2023/02/19 06:54:12;;;;;;;10.48;8.00;;;;;;;11.20;62.45;95196.94;5076053;28;20031;-76
2023/02/19 06:56:39;;;;;;;11.98;10.30;;;;;;;11.39;62.37;95197.34;5080103;28;20024;-76
2023/02/19 06:59:07;;;;;;;21.67;16.67;;;;;;;12.55;58.98;95192.81;5075332;28;20055;-76
2023/02/19 07:01:33;;;;;;;12.85;11.65;;;;;;;14.49;51.40;95188.53;5076862;28;20036;-76
2023/02/19 07:03:59;;;;;;;14.65;10.25;;;;;;;13.19;55.33;95179.16;5058384;28;20066;-76
2023/02/19 07:06:26;;;;;;;11.00;8.57;;;;;;;16.13;47.05;95186.72;5076069;28;20565;-77
2023/02/19 07:08:53;;;;;;;11.52;9.07;;;;;;;15.37;47.09;95176.63;5076984;28;20111;-77
2023/02/19 07:11:19;;;;;;;11.57;8.43;;;;;;;16.42;45.85;95174.28;5074696;28;20032;-77
2023/02/19 07:13:44;;;;;;;16.10;12.70;;;;;;;16.86;44.52;95179.72;5077265;28;20111;-77
2023/02/19 07:16:11;;;;;;;19.42;14.57;;;;;;;18.22;41.77;95170.72;5072025;28;20112;-77
2023/02/19 07:18:38;;;;;;;17.90;15.05;;;;;;;17.43;42.64;95180.81;5067578;28;20152;-77
2023/02/19 07:21:05;;;;;;;12.82;11.68;;;;;;;18.89;39.18;95170.03;5075029;28;20420;-77
2023/02/19 07:23:30;;;;;;;12.90;10.75;;;;;;;18.62;39.64;95169.44;5067312;28;20035;-75
2023/02/19 07:25:56;;;;;;;11.00;9.95;;;;;;;18.08;40.07;95164.78;5039785;28;20033;-76
2023/02/19 07:28:21;;;;;;;11.15;10.05;;;;;;;18.30;39.75;95163.41;5075361;28;20615;-77
2023/02/19 07:30:46;;;;;;;9.75;8.80;;;;;;;20.04;37.02;95168.28;5076472;28;20513;-78
2023/02/19 07:33:12;;;;;;;10.73;8.95;;;;;;;21.49;34.54;95159.63;5076385;28;20404;-75
2023/02/19 07:35:37;;;;;;;10.15;8.68;;;;;;;21.35;34.30;95155.66;5091070;28;20348;-76
2023/02/19 07:38:03;;;;;;;11.82;9.40;;;;;;;20.32;35.17;95152.75;5074699;28;20027;-75
2023/02/19 07:40:28;;;;;;;11.77;9.32;;;;;;;20.62;35.23;95152.66;5045012;28;20503;-75
2023/02/19 07:42:53;;;;;;;10.45;9.02;;;;;;;20.94;35.27;95153.94;5058325;28;20023;-75
2023/02/19 07:45:19;;;;;;;14.23;9.23;;;;;;;21.30;34.50;95156.34;5076666;28;20237;-75
2023/02/19 07:47:44;;;;;;;10.45;9.45;;;;;;;21.18;33.48;95152.13;5077742;28;20358;-76
2023/02/19 07:50:10;;;;;;;9.43;8.43;;;;;;;20.14;35.12;95153.59;5074548;28;20028;-76
2023/02/19 07:52:35;;;;;;;9.25;8.35;;;;;;;18.20;38.14;95157.03;5076172;28;20016;-78
2023/02/19 07:55:00;;;;;;;9.55;8.55;;;;;;;17.61;38.95;95160.00;5057064;28;20032;-75
2023/02/19 07:57:30;;;;;;;9.25;8.40;;;;;;;18.64;37.63;95166.63;5076292;28;20024;-75
2023/02/19 07:59:55;;;;;;;;;;;;;;;17.86;39.10;95160.88;5058419;28;20024;-76
2023/02/19 08:05:05;;;;;;;7.57;6.88;;;;;;;17.63;40.16;95160.56;5065677;28;20036;-76
2023/02/19 08:07:34;;;;;;;8.23;7.50;;;;;;;17.45;41.30;95157.81;5072016;28;20398;-76
2023/02/19 08:15:28;;;;;;;8.20;7.50;;;;;;;18.47;40.26;95157.63;5076669;28;20136;-78
2023/02/19 08:17:53;;;;;;;12.88;8.25;;;;;;;21.32;35.73;95159.53;5075434;28;20497;-75
2023/02/19 08:20:19;;;;;;;11.05;10.00;;;;;;;23.33;31.92;95158.03;5073682;28;20032;-75
2023/02/19 08:22:44;;;;;;;11.38;10.27;;;;;;;23.40;31.49;95156.84;5075674;28;20028;-76
2023/02/19 08:25:10;;;;;;;11.15;8.65;;;;;;;24.93;29.74;95170.59;5075322;28;20036;-78
2023/02/19 08:27:35;;;;;;;10.88;8.73;;;;;;;26.14;28.29;95166.69;5076056;28;20023;-77
2023/02/19 08:30:00;;;;;;;9.38;7.82;;;;;;;25.40;29.25;95165.31;5073967;28;20487;-78
2023/02/19 08:32:26;;;;;;;13.48;9.23;;;;;;;23.46;30.96;95155.88;5074846;28;20075;-78
2023/02/19 08:34:51;;;;;;;10.07;9.18;;;;;;;23.36;31.36;95161.00;5088672;28;20772;-78
2023/02/19 08:37:17;;;;;;;10.05;8.23;;;;;;;23.87;30.49;95157.13;5074199;28;20987;-79
2023/02/19 08:39:43;;;;;;;8.60;7.80;;;;;;;23.82;31.29;95159.75;5058383;28;20561;-79
2023/02/19 08:42:09;;;;;;;10.05;8.57;;;;;;;24.26;30.83;95157.03;5074901;28;20035;-79
2023/02/19 08:44:34;;;;;;;9.23;8.32;;;;;;;24.46;29.98;95158.03;5064832;28;20064;-78
2023/02/19 08:46:59;;;;;;;9.27;8.48;;;;;;;24.10;30.44;95148.13;5069557;28;20469;-76
2023/02/19 08:49:25;;;;;;;9.23;8.32;;;;;;;23.77;30.81;95146.44;5074559;28;20027;-76
2023/02/19 08:51:51;;;;;;;8.70;8.00;;;;;;;24.68;30.03;95150.00;5075317;28;20032;-79
2023/02/19 08:54:16;;;;;;;8.80;8.02;;;;;;;24.14;31.39;95139.44;5074507;28;20028;-78
2023/02/19 08:56:42;;;;;;;8.65;7.95;;;;;;;23.54;30.14;95136.91;5075988;28;20074;-78
2023/02/19 08:59:07;;;;;;;9.30;8.48;;;;;;;24.06;30.72;95129.28;5073942;28;20044;-76
2023/02/19 09:01:33;;;;;;;8.88;8.18;;;;;;;22.39;32.39;95128.88;5054763;28;20099;-76
2023/02/19 09:03:58;;;;;;;9.02;8.27;;;;;;;23.78;32.05;95118.13;5068510;28;20031;-78
2023/02/19 09:06:24;;;;;;;10.05;8.43;;;;;;;23.93;31.99;95115.63;5063320;28;20278;-78
2023/02/19 09:08:49;;;;;;;10.05;8.35;;;;;;;24.46;31.30;95113.00;5042142;28;20037;-78
2023/02/19 09:11:15;;;;;;;9.07;8.27;;;;;;;26.11;29.96;95113.31;5058599;28;20043;-77
2023/02/19 09:13:40;;;;;;;7.78;7.07;;;;;;;26.60;28.85;95106.47;5078125;28;20031;-78
2023/02/19 09:16:06;;;;;;;7.70;7.10;;;;;;;24.15;31.15;95103.19;5078216;28;20055;-78
2023/02/19 09:18:32;;;;;;;7.90;7.20;;;;;;;24.28;31.72;95105.41;5051401;28;20403;-78
2023/02/19 09:21:03;;;;;;;7.47;6.88;;;;;;;25.11;30.46;95101.25;5073242;28;20068;-77
2023/02/19 09:23:29;;;;;;;8.70;7.90;;;;;;;25.68;29.57;95088.00;5079294;28;20513;-79
2023/02/19 09:26:02;;;;;;;7.65;7.05;;;;;;;25.83;30.64;95082.72;5076888;28;20519;-78
2023/02/19 09:28:28;;;;;;;7.93;6.35;;;;;;;25.45;30.05;95083.91;5078767;28;20032;-78
2023/02/19 09:30:54;;;;;;;6.72;6.13;;;;;;;26.11;29.41;95076.13;5077743;28;20027;-79
2023/02/19 09:33:19;;;;;;;6.68;6.05;;;;;;;25.92;29.48;95067.06;5079594;28;20079;-78
2023/02/19 09:35:44;;;;;;;8.38;7.00;;;;;;;24.63;30.29;95073.09;5091839;28;20050;-78
2023/02/19 09:38:10;;;;;;;6.40;5.80;;;;;;;26.02;29.59;95069.75;5077340;28;20067;-78
2023/02/19 09:40:37;;;;;;;6.35;5.75;;;;;;;25.38;30.41;95064.78;5077993;28;20016;-78
2023/02/19 09:43:08;;;;;;;6.70;6.03;;;;;;;23.05;31.72;95069.13;5060169;28;20504;-79
2023/02/19 09:45:33;;;;;;;7.00;5.80;;;;;;;24.80;30.20;95071.09;5079887;28;20078;-77
2023/02/19 09:47:59;;;;;;;8.23;5.93;;;;;;;24.32;31.62;95074.75;5076918;28;20536;-78
2023/02/19 09:50:33;;;;;;;6.60;5.95;;;;;;;25.75;29.54;95075.25;5077606;28;20370;-78
2023/02/19 09:53:03;;;;;;;6.60;5.75;;;;;;;24.40;30.66;95071.59;5078035;28;20161;-78
2023/02/19 09:55:33;;;;;;;7.05;5.63;;;;;;;23.28;32.89;95065.44;5076536;28;20058;-78
2023/02/19 09:58:01;;;;;;;6.63;6.13;;;;;;;22.10;34.04;95057.91;5078303;28;20410;-78
2023/02/19 10:00:28;;;;;;;6.90;6.23;;;;;;;23.13;33.27;95065.25;5076316;28;20429;-78
2023/02/19 10:03:05;;;;;;;7.65;6.03;;;;;;;22.98;33.58;95061.38;5078511;28;20411;-79
2023/02/19 10:05:31;;;;;;;6.78;6.18;;;;;;;23.66;32.58;95065.38;5076629;28;20028;-78
2023/02/19 10:07:57;;;;;;;6.00;5.50;;;;;;;24.42;31.68;95058.13;5077398;28;20039;-78
2023/02/19 10:10:29;;;;;;;6.82;6.28;;;;;;;23.89;32.29;95057.13;5077627;28;20020;-78
2023/02/19 10:13:04;;;;;;;6.32;5.82;;;;;;;24.43;31.77;95051.78;5076727;28;20054;-78
2023/02/19 10:15:57;;;;;;;6.30;5.70;;;;;;;24.44;32.11;95050.72;5047818;28;20522;-78
2023/02/19 10:18:27;;;;;;;5.32;4.82;;;;;;;24.04;31.74;95038.75;5061414;28;20173;-78
2023/02/19 10:20:53;;;;;;;7.20;5.22;;;;;;;24.44;31.67;95032.97;5077341;28;20100;-78
2023/02/19 10:23:18;;;;;;;5.55;4.50;;;;;;;24.91;30.41;95022.44;5076572;28;20574;-78
2023/02/19 10:25:47;;;;;;;5.55;5.05;;;;;;;23.40;32.72;95013.25;5077957;28;20032;-78
2023/02/19 10:28:16;;;;;;;5.63;5.13;;;;;;;24.31;32.00;95020.16;5077733;28;20028;-78
2023/02/19 10:30:42;;;;;;;5.25;4.85;;;;;;;22.16;34.63;95004.97;5075479;28;20035;-79
2023/02/19 10:33:15;;;;;;;5.13;4.63;;;;;;;20.52;37.13;94994.53;5061395;28;20111;-78
2023/02/19 10:35:54;;;;;;;9.70;4.90;;;;;;;20.25;38.37;95000.25;5088750;28;20043;-77
2023/02/19 10:38:31;;;;;;;7.22;4.80;;;;;;;20.47;37.44;94982.88;5078256;28;20521;-78
2023/02/19 10:41:12;;;;;;;5.30;4.80;;;;;;;20.18;37.95;94983.75;5078942;28;20024;-78
2023/02/19 10:43:41;;;;;;;5.38;4.88;;;;;;;20.42;38.58;94979.31;5076992;28;20024;-77
2023/02/19 10:46:15;;;;;;;5.05;4.55;;;;;;;20.44;38.49;94972.78;5077507;28;20422;-78
2023/02/19 10:48:46;;;;;;;4.28;3.85;;;;;;;20.82;37.83;94955.66;5058995;28;20057;-78
2023/02/19 10:51:14;;;;;;;5.00;4.50;;;;;;;20.88;37.40;94947.63;5076674;28;20477;-77
2023/02/19 10:53:45;;;;;;;5.93;4.20;;;;;;;19.91;39.51;94954.47;5078229;28;20509;-77
2023/02/19 10:56:22;;;;;;;5.13;4.28;;;;;;;19.61;40.02;94945.09;5058479;28;20067;-80
2023/02/19 10:58:48;;;;;;;5.13;4.68;;;;;;;19.44;39.96;94948.38;5077186;28;20020;-78
2023/02/19 11:01:15;;;;;;;5.13;4.63;;;;;;;18.69;41.08;94935.84;5067777;28;20068;-77
2023/02/19 11:03:41;;;;;;;4.40;3.97;;;;;;;19.50;39.81;94932.72;5072215;28;20028;-77
2023/02/19 11:06:08;;;;;;;4.63;4.03;;;;;;;19.28;39.69;94930.59;5075754;28;20019;-77
2023/02/19 11:08:47;;;;;;;5.65;4.90;;;;;;;19.24;40.47;94913.66;5047390;28;20488;-78
2023/02/19 11:11:23;;;;;;;;;;;;;;;19.38;41.21;94917.72;5060222;28;20016;-78
2023/02/19 11:13:49;;;;;;;4.63;4.22;;;;;;;19.52;40.62;94914.91;5074843;28;20381;-78
2023/02/19 11:16:14;;;;;;;5.03;4.55;;;;;;;19.51;40.06;94914.09;5077022;28;20139;-78
2023/02/19 11:18:41;;;;;;;6.07;5.43;;;;;;;19.37;41.40;94910.84;5074829;28;20055;-76
2023/02/19 11:21:31;;;;;;;5.20;4.35;;;;;;;18.99;41.39;94904.34;5076647;28;20032;-78
2023/02/19 11:23:57;;;;;;;4.68;4.25;;;;;;;18.74;41.90;94897.44;5076402;28;20028;-77
2023/02/19 11:26:25;;;;;;;5.53;5.03;;;;;;;18.43;42.12;94895.75;5074849;28;20546;-79
2023/02/19 11:28:59;;;;;;;6.40;4.50;;;;;;;18.51;42.77;94899.13;5076436;28;20054;-78
2023/02/19 11:31:31;;;;;;;5.15;4.47;;;;;;;18.46;42.68;94891.91;5074603;28;20062;-78
2023/02/19 11:34:23;;;;;;;5.47;4.97;;;;;;;18.40;42.50;94890.94;5083021;28;20019;-78
2023/02/19 11:37:09;;;;;;;4.50;4.03;;;;;;;18.25;42.37;94885.28;5080138;28;20052;-78
2023/02/19 11:39:35;;;;;;;4.65;4.25;;;;;;;18.27;42.33;94877.19;5074934;28;20032;-78
2023/02/19 11:42:13;;;;;;;5.13;4.55;;;;;;;18.41;42.30;94876.81;5076162;28;20226;-77
2023/02/19 11:45:00;;;;;;;7.65;4.28;;;;;;;18.74;41.41;94873.81;5075974;28;20032;-77
2023/02/19 11:47:44;;;;;;;5.05;4.10;;;;;;;18.38;41.38;94861.53;5069731;28;20558;-77
2023/02/19 11:50:41;;;;;;;5.38;4.35;;;;;;;18.58;41.63;94868.38;5056042;28;20516;-77
2023/02/19 11:53:19;;;;;;;6.82;4.43;;;;;;;18.29;42.01;94851.56;5064113;28;20551;-78
2023/02/19 11:55:56;;;;;;;5.15;4.10;;;;;;;18.16;41.50;94847.28;5075619;28;20530;-79
2023/02/19 11:58:40;;;;;;;4.95;4.45;;;;;;;18.25;42.44;94840.72;5063312;28;20028;-78
2023/02/19 12:01:21;;;;;;;4.57;4.13;;;;;;;18.10;41.89;94836.88;5053837;28;20059;-78